sensor_id;sensor_type;location;lat;lon;timestamp;P1;durP1;ratioP1;P2;durP2;ratioP2
80711;SDS011;70078;51.596;5.678;2023-07-22T00:01:31;14.07;;;7.90;;
80711;SDS011;70078;51.596;5.678;2023-07-22T00:03:57;13.25;;;7.68;;
80711;SDS011;70078;51.596;5.678;2023-07-22T00:06:22;12.82;;;7.72;;
80711;SDS011;70078;51.596;5.678;2023-07-22T00:08:49;15.35;;;8.43;;
80711;SDS011;70078;51.596;5.678;2023-07-22T00:11:14;13.70;;;8.55;;
80711;SDS011;70078;51.596;5.678;2023-07-22T00:13:40;14.77;;;9.05;;
80711;SDS011;70078;51.596;5.678;2023-07-22T00:16:05;14.63;;;9.27;;
80711;SDS011;70078;51.596;5.678;2023-07-22T00:18:32;12.82;;;7.97;;
80711;SDS011;70078;51.596;5.678;2023-07-22T00:20:58;15.55;;;8.60;;
80711;SDS011;70078;51.596;5.678;2023-07-22T00:23:24;13.95;;;8.30;;
80711;SDS011;70078;51.596;5.678;2023-07-22T00:25:50;15.75;;;9.38;;
80711;SDS011;70078;51.596;5.678;2023-07-22T00:28:16;13.95;;;8.52;;
80711;SDS011;70078;51.596;5.678;2023-07-22T00:30:42;16.02;;;8.82;;
80711;SDS011;70078;51.596;5.678;2023-07-22T00:33:07;14.32;;;7.50;;
80711;SDS011;70078;51.596;5.678;2023-07-22T00:35:33;15.07;;;8.85;;
80711;SDS011;70078;51.596;5.678;2023-07-22T00:37:59;14.25;;;8.70;;
80711;SDS011;70078;51.596;5.678;2023-07-22T00:40:26;18.70;;;9.05;;
80711;SDS011;70078;51.596;5.678;2023-07-22T00:42:51;16.17;;;8.75;;
80711;SDS011;70078;51.596;5.678;2023-07-22T00:45:17;14.35;;;8.45;;
80711;SDS011;70078;51.596;5.678;2023-07-22T00:47:43;18.85;;;8.43;;
80711;SDS011;70078;51.596;5.678;2023-07-22T00:50:09;17.25;;;9.02;;
80711;SDS011;70078;51.596;5.678;2023-07-22T00:52:35;15.57;;;8.50;;
80711;SDS011;70078;51.596;5.678;2023-07-22T00:55:01;15.73;;;9.43;;
80711;SDS011;70078;51.596;5.678;2023-07-22T00:57:27;16.23;;;8.90;;
80711;SDS011;70078;51.596;5.678;2023-07-22T00:59:53;17.00;;;9.15;;
80711;SDS011;70078;51.596;5.678;2023-07-22T01:02:19;17.63;;;9.63;;
80711;SDS011;70078;51.596;5.678;2023-07-22T01:04:45;15.45;;;9.57;;
80711;SDS011;70078;51.596;5.678;2023-07-22T01:07:11;14.55;;;9.43;;
80711;SDS011;70078;51.596;5.678;2023-07-22T01:09:38;16.50;;;9.27;;
80711;SDS011;70078;51.596;5.678;2023-07-22T01:12:05;16.73;;;9.43;;
80711;SDS011;70078;51.596;5.678;2023-07-22T01:14:32;17.88;;;10.52;;
80711;SDS011;70078;51.596;5.678;2023-07-22T01:17:04;16.50;;;10.70;;
80711;SDS011;70078;51.596;5.678;2023-07-22T01:19:32;16.45;;;9.43;;
80711;SDS011;70078;51.596;5.678;2023-07-22T01:21:59;15.65;;;8.98;;
80711;SDS011;70078;51.596;5.678;2023-07-22T01:24:26;17.40;;;9.45;;
80711;SDS011;70078;51.596;5.678;2023-07-22T01:26:53;16.45;;;9.48;;
80711;SDS011;70078;51.596;5.678;2023-07-22T01:29:18;15.07;;;9.57;;
80711;SDS011;70078;51.596;5.678;2023-07-22T01:31:46;17.27;;;9.68;;
80711;SDS011;70078;51.596;5.678;2023-07-22T01:34:12;15.13;;;9.15;;
80711;SDS011;70078;51.596;5.678;2023-07-22T01:36:37;16.75;;;8.93;;
80711;SDS011;70078;51.596;5.678;2023-07-22T01:39:03;15.77;;;9.20;;
80711;SDS011;70078;51.596;5.678;2023-07-22T01:41:30;16.58;;;9.05;;
80711;SDS011;70078;51.596;5.678;2023-07-22T01:43:56;14.95;;;9.35;;
80711;SDS011;70078;51.596;5.678;2023-07-22T01:46:21;15.38;;;8.98;;
80711;SDS011;70078;51.596;5.678;2023-07-22T01:48:47;17.00;;;8.95;;
80711;SDS011;70078;51.596;5.678;2023-07-22T01:51:12;14.98;;;8.52;;
80711;SDS011;70078;51.596;5.678;2023-07-22T01:53:37;14.93;;;8.57;;
80711;SDS011;70078;51.596;5.678;2023-07-22T01:56:03;16.00;;;8.48;;
80711;SDS011;70078;51.596;5.678;2023-07-22T01:58:30;14.57;;;8.55;;
80711;SDS011;70078;51.596;5.678;2023-07-22T02:00:55;15.98;;;9.10;;
80711;SDS011;70078;51.596;5.678;2023-07-22T02:03:21;16.30;;;8.95;;
80711;SDS011;70078;51.596;5.678;2023-07-22T02:05:46;15.32;;;9.38;;
80711;SDS011;70078;51.596;5.678;2023-07-22T02:08:11;14.25;;;8.65;;
80711;SDS011;70078;51.596;5.678;2023-07-22T02:10:37;16.30;;;8.15;;
80711;SDS011;70078;51.596;5.678;2023-07-22T02:13:02;13.80;;;8.75;;
80711;SDS011;70078;51.596;5.678;2023-07-22T02:15:29;15.98;;;9.20;;
80711;SDS011;70078;51.596;5.678;2023-07-22T02:17:55;14.50;;;9.20;;
80711;SDS011;70078;51.596;5.678;2023-07-22T02:20:21;15.30;;;8.40;;
80711;SDS011;70078;51.596;5.678;2023-07-22T02:22:47;13.88;;;9.02;;
80711;SDS011;70078;51.596;5.678;2023-07-22T02:25:13;14.07;;;8.60;;
80711;SDS011;70078;51.596;5.678;2023-07-22T02:27:40;13.07;;;9.02;;
80711;SDS011;70078;51.596;5.678;2023-07-22T02:30:07;16.20;;;9.23;;
80711;SDS011;70078;51.596;5.678;2023-07-22T02:32:39;16.48;;;9.60;;
80711;SDS011;70078;51.596;5.678;2023-07-22T02:35:08;13.82;;;8.23;;
80711;SDS011;70078;51.596;5.678;2023-07-22T02:37:36;14.48;;;8.95;;
80711;SDS011;70078;51.596;5.678;2023-07-22T02:40:03;15.82;;;9.40;;
80711;SDS011;70078;51.596;5.678;2023-07-22T02:42:33;17.67;;;9.23;;
80711;SDS011;70078;51.596;5.678;2023-07-22T02:45:01;13.25;;;8.88;;
80711;SDS011;70078;51.596;5.678;2023-07-22T02:47:27;16.10;;;9.88;;
80711;SDS011;70078;51.596;5.678;2023-07-22T02:49:53;14.75;;;8.80;;
80711;SDS011;70078;51.596;5.678;2023-07-22T02:52:19;14.40;;;8.95;;
80711;SDS011;70078;51.596;5.678;2023-07-22T02:54:50;16.52;;;9.40;;
80711;SDS011;70078;51.596;5.678;2023-07-22T02:57:29;13.18;;;8.43;;
80711;SDS011;70078;51.596;5.678;2023-07-22T02:59:56;16.05;;;8.13;;
80711;SDS011;70078;51.596;5.678;2023-07-22T03:02:21;15.23;;;8.45;;
80711;SDS011;70078;51.596;5.678;2023-07-22T03:04:46;16.90;;;9.13;;
80711;SDS011;70078;51.596;5.678;2023-07-22T03:07:12;14.07;;;8.05;;
80711;SDS011;70078;51.596;5.678;2023-07-22T03:09:37;13.98;;;8.45;;
80711;SDS011;70078;51.596;5.678;2023-07-22T03:12:02;15.05;;;8.35;;
80711;SDS011;70078;51.596;5.678;2023-07-22T03:14:28;15.25;;;9.23;;
80711;SDS011;70078;51.596;5.678;2023-07-22T03:16:54;14.40;;;7.90;;
80711;SDS011;70078;51.596;5.678;2023-07-22T03:19:19;15.27;;;9.05;;
80711;SDS011;70078;51.596;5.678;2023-07-22T03:21:44;14.77;;;8.88;;
80711;SDS011;70078;51.596;5.678;2023-07-22T03:24:10;14.77;;;8.77;;
80711;SDS011;70078;51.596;5.678;2023-07-22T03:26:35;14.75;;;8.90;;
80711;SDS011;70078;51.596;5.678;2023-07-22T03:29:00;15.27;;;9.10;;
80711;SDS011;70078;51.596;5.678;2023-07-22T03:31:26;16.50;;;9.57;;
80711;SDS011;70078;51.596;5.678;2023-07-22T03:33:51;15.20;;;9.38;;
80711;SDS011;70078;51.596;5.678;2023-07-22T03:36:17;13.05;;;8.32;;
80711;SDS011;70078;51.596;5.678;2023-07-22T03:38:42;12.75;;;8.95;;
80711;SDS011;70078;51.596;5.678;2023-07-22T03:41:08;13.52;;;8.73;;
80711;SDS011;70078;51.596;5.678;2023-07-22T03:43:33;16.58;;;8.85;;
80711;SDS011;70078;51.596;5.678;2023-07-22T03:45:58;14.23;;;9.02;;
80711;SDS011;70078;51.596;5.678;2023-07-22T03:48:24;14.77;;;10.00;;
80711;SDS011;70078;51.596;5.678;2023-07-22T03:50:49;15.45;;;9.43;;
80711;SDS011;70078;51.596;5.678;2023-07-22T03:53:15;14.52;;;8.70;;
80711;SDS011;70078;51.596;5.678;2023-07-22T03:55:40;17.33;;;9.50;;
80711;SDS011;70078;51.596;5.678;2023-07-22T03:58:06;15.18;;;8.65;;
80711;SDS011;70078;51.596;5.678;2023-07-22T04:00:31;16.77;;;9.48;;
80711;SDS011;70078;51.596;5.678;2023-07-22T04:02:56;14.82;;;8.95;;
80711;SDS011;70078;51.596;5.678;2023-07-22T04:05:22;15.15;;;8.85;;
80711;SDS011;70078;51.596;5.678;2023-07-22T04:07:47;17.95;;;8.45;;
80711;SDS011;70078;51.596;5.678;2023-07-22T04:10:12;16.75;;;9.27;;
80711;SDS011;70078;51.596;5.678;2023-07-22T04:12:38;14.60;;;8.82;;
80711;SDS011;70078;51.596;5.678;2023-07-22T04:15:03;14.38;;;8.73;;
80711;SDS011;70078;51.596;5.678;2023-07-22T04:17:29;14.45;;;8.85;;
80711;SDS011;70078;51.596;5.678;2023-07-22T04:19:54;14.25;;;7.95;;
80711;SDS011;70078;51.596;5.678;2023-07-22T04:22:20;12.10;;;8.32;;
80711;SDS011;70078;51.596;5.678;2023-07-22T04:24:46;15.20;;;8.38;;
80711;SDS011;70078;51.596;5.678;2023-07-22T04:27:13;13.68;;;8.30;;
80711;SDS011;70078;51.596;5.678;2023-07-22T04:29:40;17.02;;;8.63;;
80711;SDS011;70078;51.596;5.678;2023-07-22T04:32:06;14.65;;;8.68;;
80711;SDS011;70078;51.596;5.678;2023-07-22T04:34:33;14.13;;;8.98;;
80711;SDS011;70078;51.596;5.678;2023-07-22T04:36:59;16.33;;;9.52;;
80711;SDS011;70078;51.596;5.678;2023-07-22T04:39:24;15.43;;;8.88;;
80711;SDS011;70078;51.596;5.678;2023-07-22T04:41:50;15.40;;;8.40;;
80711;SDS011;70078;51.596;5.678;2023-07-22T04:44:16;13.55;;;7.97;;
80711;SDS011;70078;51.596;5.678;2023-07-22T04:46:42;13.80;;;8.90;;
80711;SDS011;70078;51.596;5.678;2023-07-22T04:49:08;13.98;;;8.15;;
80711;SDS011;70078;51.596;5.678;2023-07-22T04:51:33;16.10;;;8.48;;
80711;SDS011;70078;51.596;5.678;2023-07-22T04:53:59;15.55;;;9.00;;
80711;SDS011;70078;51.596;5.678;2023-07-22T04:56:24;17.90;;;7.97;;
80711;SDS011;70078;51.596;5.678;2023-07-22T04:58:49;16.55;;;8.55;;
80711;SDS011;70078;51.596;5.678;2023-07-22T05:01:15;16.33;;;8.32;;
80711;SDS011;70078;51.596;5.678;2023-07-22T05:03:40;11.80;;;7.50;;
80711;SDS011;70078;51.596;5.678;2023-07-22T05:06:06;14.73;;;8.05;;
80711;SDS011;70078;51.596;5.678;2023-07-22T05:08:31;17.02;;;8.82;;
80711;SDS011;70078;51.596;5.678;2023-07-22T05:10:56;13.88;;;7.47;;
80711;SDS011;70078;51.596;5.678;2023-07-22T05:13:22;17.48;;;9.20;;
80711;SDS011;70078;51.596;5.678;2023-07-22T05:15:47;15.40;;;9.00;;
80711;SDS011;70078;51.596;5.678;2023-07-22T05:18:12;14.23;;;8.93;;
80711;SDS011;70078;51.596;5.678;2023-07-22T05:20:38;16.38;;;9.52;;
80711;SDS011;70078;51.596;5.678;2023-07-22T05:23:04;15.10;;;8.95;;
80711;SDS011;70078;51.596;5.678;2023-07-22T05:25:29;14.98;;;8.40;;
80711;SDS011;70078;51.596;5.678;2023-07-22T05:27:55;18.10;;;9.27;;
80711;SDS011;70078;51.596;5.678;2023-07-22T05:30:20;14.50;;;8.27;;
80711;SDS011;70078;51.596;5.678;2023-07-22T05:32:46;13.68;;;8.40;;
80711;SDS011;70078;51.596;5.678;2023-07-22T05:35:11;15.07;;;7.88;;
80711;SDS011;70078;51.596;5.678;2023-07-22T05:37:36;15.55;;;8.32;;
80711;SDS011;70078;51.596;5.678;2023-07-22T05:40:02;15.27;;;9.82;;
80711;SDS011;70078;51.596;5.678;2023-07-22T05:42:27;15.10;;;8.23;;
80711;SDS011;70078;51.596;5.678;2023-07-22T05:44:57;17.05;;;8.70;;
80711;SDS011;70078;51.596;5.678;2023-07-22T05:47:23;16.92;;;7.53;;
80711;SDS011;70078;51.596;5.678;2023-07-22T05:49:48;14.25;;;7.68;;
80711;SDS011;70078;51.596;5.678;2023-07-22T05:52:13;16.23;;;8.32;;
80711;SDS011;70078;51.596;5.678;2023-07-22T05:54:39;17.65;;;9.05;;
80711;SDS011;70078;51.596;5.678;2023-07-22T05:57:04;15.30;;;8.38;;
80711;SDS011;70078;51.596;5.678;2023-07-22T05:59:30;19.40;;;8.52;;
80711;SDS011;70078;51.596;5.678;2023-07-22T06:01:56;17.45;;;8.63;;
80711;SDS011;70078;51.596;5.678;2023-07-22T06:04:21;14.00;;;8.35;;
80711;SDS011;70078;51.596;5.678;2023-07-22T06:06:47;13.15;;;7.97;;
80711;SDS011;70078;51.596;5.678;2023-07-22T06:09:12;14.38;;;8.52;;
80711;SDS011;70078;51.596;5.678;2023-07-22T06:11:37;21.05;;;9.00;;
80711;SDS011;70078;51.596;5.678;2023-07-22T06:14:03;16.70;;;8.32;;
80711;SDS011;70078;51.596;5.678;2023-07-22T06:16:28;14.93;;;7.88;;
80711;SDS011;70078;51.596;5.678;2023-07-22T06:18:53;15.50;;;9.30;;
80711;SDS011;70078;51.596;5.678;2023-07-22T06:21:19;15.00;;;9.05;;
80711;SDS011;70078;51.596;5.678;2023-07-22T06:23:44;14.65;;;8.65;;
80711;SDS011;70078;51.596;5.678;2023-07-22T06:26:09;18.20;;;8.98;;
80711;SDS011;70078;51.596;5.678;2023-07-22T06:28:35;17.95;;;8.65;;
80711;SDS011;70078;51.596;5.678;2023-07-22T06:31:00;22.15;;;8.88;;
80711;SDS011;70078;51.596;5.678;2023-07-22T06:33:25;14.88;;;8.18;;
80711;SDS011;70078;51.596;5.678;2023-07-22T06:35:51;17.40;;;9.25;;
80711;SDS011;70078;51.596;5.678;2023-07-22T06:38:16;14.25;;;8.50;;
80711;SDS011;70078;51.596;5.678;2023-07-22T06:40:41;15.50;;;9.18;;
80711;SDS011;70078;51.596;5.678;2023-07-22T06:43:07;14.27;;;8.05;;
80711;SDS011;70078;51.596;5.678;2023-07-22T06:45:32;15.35;;;8.77;;
80711;SDS011;70078;51.596;5.678;2023-07-22T06:47:58;14.90;;;9.65;;
80711;SDS011;70078;51.596;5.678;2023-07-22T06:50:23;15.52;;;8.70;;
80711;SDS011;70078;51.596;5.678;2023-07-22T06:52:48;20.63;;;8.68;;
80711;SDS011;70078;51.596;5.678;2023-07-22T06:55:14;15.68;;;8.60;;
80711;SDS011;70078;51.596;5.678;2023-07-22T06:57:40;16.65;;;8.75;;
80711;SDS011;70078;51.596;5.678;2023-07-22T07:00:05;15.55;;;8.45;;
80711;SDS011;70078;51.596;5.678;2023-07-22T07:02:31;18.20;;;8.73;;
80711;SDS011;70078;51.596;5.678;2023-07-22T07:04:56;16.08;;;8.35;;
80711;SDS011;70078;51.596;5.678;2023-07-22T07:07:22;17.67;;;9.07;;
80711;SDS011;70078;51.596;5.678;2023-07-22T07:09:47;17.77;;;9.15;;
80711;SDS011;70078;51.596;5.678;2023-07-22T07:12:12;16.23;;;9.88;;
80711;SDS011;70078;51.596;5.678;2023-07-22T07:14:38;19.95;;;9.07;;
80711;SDS011;70078;51.596;5.678;2023-07-22T07:17:03;16.15;;;9.57;;
80711;SDS011;70078;51.596;5.678;2023-07-22T07:19:29;18.40;;;9.40;;
80711;SDS011;70078;51.596;5.678;2023-07-22T07:21:54;19.73;;;9.00;;
80711;SDS011;70078;51.596;5.678;2023-07-22T07:24:19;15.63;;;9.93;;
80711;SDS011;70078;51.596;5.678;2023-07-22T07:26:45;19.17;;;10.32;;
80711;SDS011;70078;51.596;5.678;2023-07-22T07:29:10;19.02;;;8.95;;
80711;SDS011;70078;51.596;5.678;2023-07-22T07:31:39;16.50;;;8.77;;
80711;SDS011;70078;51.596;5.678;2023-07-22T07:34:04;18.25;;;8.85;;
80711;SDS011;70078;51.596;5.678;2023-07-22T07:36:31;18.08;;;8.93;;
80711;SDS011;70078;51.596;5.678;2023-07-22T07:38:57;16.63;;;9.23;;
80711;SDS011;70078;51.596;5.678;2023-07-22T07:41:22;14.00;;;9.38;;
80711;SDS011;70078;51.596;5.678;2023-07-22T07:43:48;17.60;;;9.30;;
80711;SDS011;70078;51.596;5.678;2023-07-22T07:46:28;17.98;;;9.48;;
80711;SDS011;70078;51.596;5.678;2023-07-22T07:48:55;15.23;;;8.32;;
80711;SDS011;70078;51.596;5.678;2023-07-22T07:51:25;14.60;;;8.20;;
80711;SDS011;70078;51.596;5.678;2023-07-22T07:53:52;17.15;;;10.48;;
80711;SDS011;70078;51.596;5.678;2023-07-22T07:56:18;17.40;;;9.18;;
80711;SDS011;70078;51.596;5.678;2023-07-22T07:58:45;15.32;;;9.23;;
80711;SDS011;70078;51.596;5.678;2023-07-22T08:01:15;15.88;;;8.38;;
80711;SDS011;70078;51.596;5.678;2023-07-22T08:03:41;15.98;;;9.90;;
80711;SDS011;70078;51.596;5.678;2023-07-22T08:06:08;15.98;;;9.02;;
80711;SDS011;70078;51.596;5.678;2023-07-22T08:08:34;15.68;;;8.30;;
80711;SDS011;70078;51.596;5.678;2023-07-22T08:11:21;14.27;;;8.15;;
80711;SDS011;70078;51.596;5.678;2023-07-22T08:13:46;14.32;;;8.88;;
80711;SDS011;70078;51.596;5.678;2023-07-22T08:16:12;14.52;;;8.15;;
80711;SDS011;70078;51.596;5.678;2023-07-22T08:18:38;18.60;;;8.20;;
80711;SDS011;70078;51.596;5.678;2023-07-22T08:21:04;16.25;;;8.05;;
80711;SDS011;70078;51.596;5.678;2023-07-22T08:23:33;16.42;;;8.43;;
80711;SDS011;70078;51.596;5.678;2023-07-22T08:25:59;15.98;;;8.10;;
80711;SDS011;70078;51.596;5.678;2023-07-22T08:28:24;15.85;;;8.15;;
80711;SDS011;70078;51.596;5.678;2023-07-22T08:30:50;14.57;;;8.45;;
80711;SDS011;70078;51.596;5.678;2023-07-22T08:33:18;12.20;;;7.07;;
80711;SDS011;70078;51.596;5.678;2023-07-22T08:35:44;13.80;;;7.28;;
80711;SDS011;70078;51.596;5.678;2023-07-22T08:38:10;12.15;;;6.80;;
80711;SDS011;70078;51.596;5.678;2023-07-22T08:40:36;13.38;;;7.22;;
80711;SDS011;70078;51.596;5.678;2023-07-22T08:43:03;14.15;;;7.18;;
80711;SDS011;70078;51.596;5.678;2023-07-22T08:45:31;11.80;;;6.65;;
80711;SDS011;70078;51.596;5.678;2023-07-22T08:47:59;11.95;;;6.85;;
80711;SDS011;70078;51.596;5.678;2023-07-22T08:50:32;13.25;;;7.53;;
80711;SDS011;70078;51.596;5.678;2023-07-22T08:53:01;12.02;;;6.07;;
80711;SDS011;70078;51.596;5.678;2023-07-22T08:55:27;11.93;;;6.40;;
80711;SDS011;70078;51.596;5.678;2023-07-22T08:57:53;9.05;;;5.35;;
80711;SDS011;70078;51.596;5.678;2023-07-22T09:00:20;13.07;;;5.85;;
80711;SDS011;70078;51.596;5.678;2023-07-22T09:02:47;11.05;;;6.07;;
80711;SDS011;70078;51.596;5.678;2023-07-22T09:05:13;12.88;;;6.35;;
80711;SDS011;70078;51.596;5.678;2023-07-22T09:07:39;10.95;;;5.38;;
80711;SDS011;70078;51.596;5.678;2023-07-22T09:10:06;11.27;;;5.55;;
80711;SDS011;70078;51.596;5.678;2023-07-22T09:12:34;9.38;;;5.32;;
80711;SDS011;70078;51.596;5.678;2023-07-22T09:15:06;8.98;;;5.47;;
80711;SDS011;70078;51.596;5.678;2023-07-22T09:17:37;10.35;;;5.85;;
80711;SDS011;70078;51.596;5.678;2023-07-22T09:20:03;9.30;;;5.63;;
80711;SDS011;70078;51.596;5.678;2023-07-22T09:22:29;9.40;;;5.60;;
80711;SDS011;70078;51.596;5.678;2023-07-22T09:27:39;7.57;;;4.63;;
80711;SDS011;70078;51.596;5.678;2023-07-22T09:30:19;7.78;;;4.32;;
80711;SDS011;70078;51.596;5.678;2023-07-22T09:32:58;7.40;;;4.32;;
80711;SDS011;70078;51.596;5.678;2023-07-22T09:35:26;9.27;;;5.03;;
80711;SDS011;70078;51.596;5.678;2023-07-22T09:37:53;7.70;;;4.80;;
80711;SDS011;70078;51.596;5.678;2023-07-22T09:40:21;10.85;;;4.47;;
80711;SDS011;70078;51.596;5.678;2023-07-22T09:42:51;8.73;;;3.85;;
80711;SDS011;70078;51.596;5.678;2023-07-22T09:45:22;11.43;;;4.90;;
80711;SDS011;70078;51.596;5.678;2023-07-22T09:47:50;8.82;;;3.53;;
80711;SDS011;70078;51.596;5.678;2023-07-22T09:50:18;10.65;;;4.18;;
80711;SDS011;70078;51.596;5.678;2023-07-22T09:52:49;7.57;;;4.03;;
80711;SDS011;70078;51.596;5.678;2023-07-22T09:55:15;7.97;;;3.30;;
80711;SDS011;70078;51.596;5.678;2023-07-22T09:57:44;6.60;;;3.67;;
80711;SDS011;70078;51.596;5.678;2023-07-22T10:00:11;7.05;;;3.90;;
80711;SDS011;70078;51.596;5.678;2023-07-22T10:02:40;8.52;;;4.43;;
80711;SDS011;70078;51.596;5.678;2023-07-22T10:05:09;9.30;;;5.65;;
80711;SDS011;70078;51.596;5.678;2023-07-22T10:07:40;7.00;;;4.57;;
80711;SDS011;70078;51.596;5.678;2023-07-22T10:10:10;7.72;;;4.53;;
80711;SDS011;70078;51.596;5.678;2023-07-22T10:12:36;7.55;;;4.32;;
80711;SDS011;70078;51.596;5.678;2023-07-22T10:15:02;8.30;;;4.20;;
80711;SDS011;70078;51.596;5.678;2023-07-22T10:17:30;9.85;;;5.47;;
80711;SDS011;70078;51.596;5.678;2023-07-22T10:19:55;7.05;;;4.63;;
80711;SDS011;70078;51.596;5.678;2023-07-22T10:22:21;6.93;;;4.55;;
80711;SDS011;70078;51.596;5.678;2023-07-22T10:24:47;7.80;;;3.58;;
80711;SDS011;70078;51.596;5.678;2023-07-22T10:27:14;8.98;;;5.10;;
80711;SDS011;70078;51.596;5.678;2023-07-22T10:29:41;7.55;;;3.88;;
80711;SDS011;70078;51.596;5.678;2023-07-22T10:32:10;9.13;;;4.60;;
80711;SDS011;70078;51.596;5.678;2023-07-22T10:34:35;8.40;;;4.15;;
80711;SDS011;70078;51.596;5.678;2023-07-22T10:37:01;6.78;;;3.70;;
80711;SDS011;70078;51.596;5.678;2023-07-22T10:39:27;9.65;;;3.58;;
80711;SDS011;70078;51.596;5.678;2023-07-22T10:42:03;7.30;;;3.67;;
80711;SDS011;70078;51.596;5.678;2023-07-22T10:44:32;6.18;;;3.70;;
80711;SDS011;70078;51.596;5.678;2023-07-22T10:47:02;6.32;;;3.25;;
80711;SDS011;70078;51.596;5.678;2023-07-22T10:49:42;6.25;;;3.70;;
80711;SDS011;70078;51.596;5.678;2023-07-22T10:52:10;5.90;;;4.15;;
80711;SDS011;70078;51.596;5.678;2023-07-22T10:54:37;7.57;;;3.67;;
80711;SDS011;70078;51.596;5.678;2023-07-22T10:57:05;5.70;;;3.55;;
80711;SDS011;70078;51.596;5.678;2023-07-22T10:59:49;5.30;;;3.65;;
80711;SDS011;70078;51.596;5.678;2023-07-22T11:02:25;7.18;;;3.65;;
80711;SDS011;70078;51.596;5.678;2023-07-22T11:04:51;8.32;;;3.60;;
80711;SDS011;70078;51.596;5.678;2023-07-22T11:07:29;7.90;;;3.05;;
80711;SDS011;70078;51.596;5.678;2023-07-22T11:10:10;7.43;;;3.00;;
80711;SDS011;70078;51.596;5.678;2023-07-22T11:12:38;3.85;;;2.30;;
80711;SDS011;70078;51.596;5.678;2023-07-22T11:15:05;5.40;;;2.60;;
80711;SDS011;70078;51.596;5.678;2023-07-22T11:17:31;5.82;;;2.13;;
80711;SDS011;70078;51.596;5.678;2023-07-22T11:19:58;3.45;;;2.22;;
80711;SDS011;70078;51.596;5.678;2023-07-22T11:22:24;4.18;;;2.03;;
80711;SDS011;70078;51.596;5.678;2023-07-22T11:24:50;5.22;;;2.20;;
80711;SDS011;70078;51.596;5.678;2023-07-22T11:27:16;4.75;;;1.88;;
80711;SDS011;70078;51.596;5.678;2023-07-22T11:29:41;3.17;;;1.80;;
80711;SDS011;70078;51.596;5.678;2023-07-22T11:32:14;7.90;;;3.03;;
80711;SDS011;70078;51.596;5.678;2023-07-22T11:34:42;3.92;;;2.60;;
80711;SDS011;70078;51.596;5.678;2023-07-22T11:37:11;6.20;;;2.25;;
80711;SDS011;70078;51.596;5.678;2023-07-22T11:39:38;8.43;;;2.33;;
80711;SDS011;70078;51.596;5.678;2023-07-22T11:42:04;4.97;;;2.22;;
80711;SDS011;70078;51.596;5.678;2023-07-22T11:44:30;3.33;;;2.22;;
80711;SDS011;70078;51.596;5.678;2023-07-22T11:47:03;3.83;;;1.77;;
80711;SDS011;70078;51.596;5.678;2023-07-22T11:52:21;5.18;;;2.03;;
80711;SDS011;70078;51.596;5.678;2023-07-22T11:54:47;3.63;;;2.10;;
80711;SDS011;70078;51.596;5.678;2023-07-22T11:59:39;5.40;;;2.00;;
80711;SDS011;70078;51.596;5.678;2023-07-22T12:02:11;5.65;;;2.00;;
80711;SDS011;70078;51.596;5.678;2023-07-22T12:04:38;7.38;;;2.40;;
80711;SDS011;70078;51.596;5.678;2023-07-22T12:07:04;7.22;;;2.20;;
80711;SDS011;70078;51.596;5.678;2023-07-22T12:09:30;6.40;;;2.10;;
80711;SDS011;70078;51.596;5.678;2023-07-22T12:11:58;3.95;;;2.10;;
80711;SDS011;70078;51.596;5.678;2023-07-22T12:14:25;5.32;;;2.67;;
80711;SDS011;70078;51.596;5.678;2023-07-22T12:16:58;4.00;;;2.15;;
80711;SDS011;70078;51.596;5.678;2023-07-22T12:19:24;5.32;;;2.78;;
80711;SDS011;70078;51.596;5.678;2023-07-22T12:21:52;3.63;;;2.10;;
80711;SDS011;70078;51.596;5.678;2023-07-22T12:24:17;5.30;;;2.80;;
80711;SDS011;70078;51.596;5.678;2023-07-22T12:26:42;4.20;;;2.08;;
80711;SDS011;70078;51.596;5.678;2023-07-22T12:29:08;4.03;;;2.00;;
80711;SDS011;70078;51.596;5.678;2023-07-22T12:31:33;3.63;;;2.30;;
80711;SDS011;70078;51.596;5.678;2023-07-22T12:33:59;4.22;;;2.33;;
80711;SDS011;70078;51.596;5.678;2023-07-22T12:36:24;4.30;;;1.92;;
80711;SDS011;70078;51.596;5.678;2023-07-22T12:38:50;4.90;;;2.20;;
80711;SDS011;70078;51.596;5.678;2023-07-22T12:41:15;4.85;;;2.22;;
80711;SDS011;70078;51.596;5.678;2023-07-22T12:43:41;6.63;;;2.72;;
80711;SDS011;70078;51.596;5.678;2023-07-22T12:46:06;4.68;;;2.33;;
80711;SDS011;70078;51.596;5.678;2023-07-22T12:48:31;3.25;;;2.00;;
80711;SDS011;70078;51.596;5.678;2023-07-22T12:50:57;7.68;;;2.20;;
80711;SDS011;70078;51.596;5.678;2023-07-22T12:53:22;4.32;;;2.22;;
80711;SDS011;70078;51.596;5.678;2023-07-22T12:55:47;4.68;;;2.08;;
80711;SDS011;70078;51.596;5.678;2023-07-22T12:58:13;4.07;;;2.15;;
80711;SDS011;70078;51.596;5.678;2023-07-22T13:00:39;4.75;;;2.38;;
80711;SDS011;70078;51.596;5.678;2023-07-22T13:03:04;4.97;;;2.22;;
80711;SDS011;70078;51.596;5.678;2023-07-22T13:05:30;6.28;;;2.58;;
80711;SDS011;70078;51.596;5.678;2023-07-22T13:07:55;3.97;;;2.15;;
80711;SDS011;70078;51.596;5.678;2023-07-22T13:10:20;5.43;;;2.03;;
80711;SDS011;70078;51.596;5.678;2023-07-22T13:12:48;5.93;;;2.38;;
80711;SDS011;70078;51.596;5.678;2023-07-22T13:15:13;6.57;;;2.83;;
80711;SDS011;70078;51.596;5.678;2023-07-22T13:17:39;6.03;;;2.47;;
80711;SDS011;70078;51.596;5.678;2023-07-22T13:20:04;5.00;;;2.38;;
80711;SDS011;70078;51.596;5.678;2023-07-22T13:22:34;6.10;;;2.15;;
80711;SDS011;70078;51.596;5.678;2023-07-22T13:25:00;5.13;;;2.00;;
80711;SDS011;70078;51.596;5.678;2023-07-22T13:27:26;3.85;;;2.00;;
80711;SDS011;70078;51.596;5.678;2023-07-22T13:29:51;3.85;;;2.72;;
80711;SDS011;70078;51.596;5.678;2023-07-22T13:32:16;4.00;;;1.95;;
80711;SDS011;70078;51.596;5.678;2023-07-22T13:34:42;7.72;;;2.17;;
80711;SDS011;70078;51.596;5.678;2023-07-22T13:37:08;2.70;;;1.73;;
80711;SDS011;70078;51.596;5.678;2023-07-22T13:39:33;8.82;;;2.05;;
80711;SDS011;70078;51.596;5.678;2023-07-22T13:41:58;5.25;;;1.67;;
80711;SDS011;70078;51.596;5.678;2023-07-22T13:44:24;3.65;;;1.88;;
80711;SDS011;70078;51.596;5.678;2023-07-22T13:46:49;5.65;;;2.33;;
80711;SDS011;70078;51.596;5.678;2023-07-22T13:49:14;5.38;;;3.15;;
80711;SDS011;70078;51.596;5.678;2023-07-22T13:51:40;5.60;;;1.73;;
80711;SDS011;70078;51.596;5.678;2023-07-22T13:54:06;4.80;;;1.98;;
80711;SDS011;70078;51.596;5.678;2023-07-22T13:56:31;6.82;;;1.83;;
80711;SDS011;70078;51.596;5.678;2023-07-22T13:58:57;4.80;;;2.03;;
80711;SDS011;70078;51.596;5.678;2023-07-22T14:01:24;3.67;;;2.10;;
80711;SDS011;70078;51.596;5.678;2023-07-22T14:03:49;3.40;;;1.80;;
80711;SDS011;70078;51.596;5.678;2023-07-22T14:06:14;9.88;;;1.85;;
80711;SDS011;70078;51.596;5.678;2023-07-22T14:08:40;3.33;;;1.85;;
80711;SDS011;70078;51.596;5.678;2023-07-22T14:11:05;4.07;;;2.08;;
80711;SDS011;70078;51.596;5.678;2023-07-22T14:13:30;3.25;;;1.85;;
80711;SDS011;70078;51.596;5.678;2023-07-22T14:15:56;5.03;;;1.60;;
80711;SDS011;70078;51.596;5.678;2023-07-22T14:18:21;4.07;;;1.95;;
80711;SDS011;70078;51.596;5.678;2023-07-22T14:20:46;3.55;;;1.90;;
80711;SDS011;70078;51.596;5.678;2023-07-22T14:23:12;3.17;;;1.63;;
80711;SDS011;70078;51.596;5.678;2023-07-22T14:25:38;4.50;;;1.80;;
80711;SDS011;70078;51.596;5.678;2023-07-22T14:28:03;4.32;;;1.98;;
80711;SDS011;70078;51.596;5.678;2023-07-22T14:30:29;4.18;;;2.08;;
80711;SDS011;70078;51.596;5.678;2023-07-22T14:32:54;4.28;;;1.60;;
80711;SDS011;70078;51.596;5.678;2023-07-22T14:35:20;3.85;;;1.95;;
80711;SDS011;70078;51.596;5.678;2023-07-22T14:37:46;4.78;;;1.80;;
80711;SDS011;70078;51.596;5.678;2023-07-22T14:40:11;8.30;;;1.63;;
80711;SDS011;70078;51.596;5.678;2023-07-22T14:42:37;5.18;;;1.65;;